Terminal Aerodrome Forecast
Issued by NWS

Home | Current Version | Previous Version | Graphics & Text | Print | Product List | Glossary On
Versions: 1 2 3 4 5 6 7 8 9 10 11 12 13 14 15 16 17 18 19 20 21 22
000
FTUS43 KTOP 290520
TAFMHK
TAF
KMHK 290520Z 2906/3006 02005KT P6SM FEW030 BKN070
     FM290700 04008KT P6SM VCSH BKN035
     FM291600 07012KT P6SM -SHRA VCTS SCT020CB BKN035
     FM292100 07014G21KT P6SM RA VCTS BKN020CB=

USA.gov is the U.S. government's official web portal to all federal, state and local government web resources and services.